createdAt,value
2019-02-06T00:03:59.632Z,101630.87
2019-02-06T00:09:01.838Z,101628.91
2019-02-06T00:14:04.950Z,101630.43
2019-02-06T00:19:07.063Z,101628.58
2019-02-06T00:24:09.252Z,101633.03
2019-02-06T00:29:11.319Z,101630.37
2019-02-06T00:34:13.439Z,101637.67
2019-02-06T00:39:15.653Z,101636.39
2019-02-06T00:44:17.767Z,101631.97
2019-02-06T00:49:19.986Z,101621.31
2019-02-06T00:54:21.880Z,101615.98
2019-02-06T00:59:24.262Z,101614.55
2019-02-06T01:04:26.834Z,101623.53
2019-02-06T01:09:28.866Z,101626.78
2019-02-06T01:14:30.881Z,101626.78
2019-02-06T01:19:32.988Z,101619.79
2019-02-06T01:24:34.946Z,101607.40
2019-02-06T01:29:37.099Z,101614.30
2019-02-06T01:34:40.138Z,101609.84
2019-02-06T01:39:43.347Z,101613.06
2019-02-06T01:44:45.551Z,101605.27
2019-02-06T01:49:47.465Z,101598.96
2019-02-06T01:54:49.516Z,101613.16
2019-02-06T01:59:51.932Z,101613.16
2019-02-06T02:04:53.914Z,101597.88
2019-02-06T02:09:55.829Z,101605.12
2019-02-06T02:14:57.739Z,101607.20
2019-02-06T02:19:59.658Z,101602.74
2019-02-06T02:25:02.893Z,101597.83
2019-02-06T02:30:08.084Z,101604.65
2019-02-06T02:35:11.220Z,101599.16
2019-02-06T02:40:13.498Z,101592.59
2019-02-06T02:45:16.610Z,101590.33
2019-02-06T02:50:18.939Z,101596.56
2019-02-06T02:55:20.970Z,101593.92
2019-02-06T03:00:29.808Z,101582.92
2019-02-06T03:05:33.920Z,101596.06
2019-02-06T03:10:35.933Z,101584.58
2019-02-06T03:15:38.347Z,101576.09
2019-02-06T03:20:40.381Z,101570.60
2019-02-06T03:25:42.309Z,101566.22
2019-02-06T03:30:44.303Z,101565.09
2019-02-06T03:35:46.231Z,101557.06
2019-02-06T03:40:48.276Z,101554.70
2019-02-06T03:45:50.273Z,101551.77
2019-02-06T03:50:52.183Z,101546.24
2019-02-06T03:55:55.406Z,101547.75
2019-02-06T04:00:57.399Z,101550.24
2019-02-06T04:05:59.325Z,101539.39
2019-02-06T04:11:01.420Z,101537.11
2019-02-06T04:16:03.942Z,101532.99
2019-02-06T04:21:06.135Z,101533.32
2019-02-06T04:26:08.392Z,101534.25
2019-02-06T04:31:10.290Z,101536.51
2019-02-06T04:36:12.445Z,101525.01
2019-02-06T04:41:17.101Z,101527.40
2019-02-06T04:46:19.110Z,101526.22
2019-02-06T04:51:20.970Z,101536.55
2019-02-06T04:56:23.014Z,101531.40
2019-02-06T05:01:25.170Z,101526.25
2019-02-06T05:06:27.216Z,101530.61
2019-02-06T05:11:29.478Z,101524.73
2019-02-06T05:16:31.893Z,101519.53
2019-02-06T05:21:33.989Z,101526.44
2019-02-06T05:26:38.580Z,101527.69
2019-02-06T05:31:40.573Z,101535.95
2019-02-06T05:36:42.532Z,101540.31
2019-02-06T05:41:44.564Z,101535.89
2019-02-06T05:46:46.493Z,101532.19
2019-02-06T05:51:48.474Z,101528.44
2019-02-06T05:56:50.860Z,101524.94
2019-02-06T06:01:52.753Z,101519.92
2019-02-06T06:06:54.710Z,101531.45
2019-02-06T06:11:56.639Z,101527.84
2019-02-06T06:16:58.831Z,101530.69
2019-02-06T06:22:00.723Z,101525.46
2019-02-06T06:27:02.682Z,101528.02
2019-02-06T06:32:04.707Z,101521.77
2019-02-06T06:37:07.980Z,101525.08
2019-02-06T06:42:10.145Z,101519.20
2019-02-06T06:47:12.168Z,101504.56
2019-02-06T06:52:14.487Z,101492.09
2019-02-06T06:57:16.405Z,101493.28
2019-02-06T07:02:18.303Z,101485.48
2019-02-06T07:07:20.254Z,101489.91
2019-02-06T07:12:22.209Z,101488.23
2019-02-06T07:17:24.141Z,101498.47
2019-02-06T07:22:26.032Z,101491.25
2019-02-06T07:27:29.853Z,101488.72
2019-02-06T07:32:32.096Z,101478.16
2019-02-06T07:37:34.245Z,101467.28
2019-02-06T07:42:36.333Z,101476.53
2019-02-06T07:47:38.388Z,101473.31
2019-02-06T07:52:40.397Z,101468.38
2019-02-06T07:57:42.694Z,101469.28
2019-02-06T08:02:44.898Z,101476.81
2019-02-06T08:07:47.566Z,101467.03
2019-02-06T08:12:50.056Z,101464.33
2019-02-06T08:17:52.059Z,101464.64
2019-02-06T08:22:54.178Z,101462.25
2019-02-06T08:27:56.332Z,101468.25
2019-02-06T08:32:58.745Z,101457.34
2019-02-06T08:38:00.868Z,101457.49
2019-02-06T08:43:03.189Z,101459.09
2019-02-06T08:48:05.421Z,101447.48
2019-02-06T08:53:07.720Z,101453.42
2019-02-06T08:58:09.805Z,101449.70
2019-02-06T09:03:12.442Z,101444.87
2019-02-06T09:08:14.347Z,101447.14
2019-02-06T09:13:16.655Z,101445.44
2019-02-06T09:18:18.671Z,101444.58
2019-02-06T09:23:20.600Z,101440.19
2019-02-06T09:28:22.689Z,101427.86
2019-02-06T09:33:24.856Z,101427.86
2019-02-06T09:38:26.760Z,101420.13
2019-02-06T09:43:28.676Z,101407.67
2019-02-06T09:48:30.574Z,101407.67
2019-02-06T09:53:32.685Z,101398.86
2019-02-06T09:58:34.576Z,101399.79
2019-02-06T10:03:36.602Z,101390.67
2019-02-06T10:08:38.626Z,101396.84
2019-02-06T10:13:40.940Z,101400.31
2019-02-06T10:18:42.936Z,101393.39
2019-02-06T10:23:45.049Z,101391.12
2019-02-06T10:28:47.044Z,101390.46
2019-02-06T10:33:49.082Z,101388.88
2019-02-06T10:38:51.151Z,101381.53
2019-02-06T10:43:53.067Z,101374.66
2019-02-06T10:48:54.958Z,101368.22
2019-02-06T10:53:58.367Z,101356.43
2019-02-06T10:59:00.265Z,101348.81
2019-02-06T11:04:02.380Z,101339.01
2019-02-06T11:09:06.222Z,101328.22
2019-02-06T11:14:08.239Z,101324.11
2019-02-06T11:19:10.253Z,101319.92
2019-02-06T11:24:12.307Z,101305.78
2019-02-06T11:29:14.218Z,101296.94
2019-02-06T11:34:16.552Z,101288.92
2019-02-06T11:39:22.779Z,101272.09
2019-02-06T11:44:24.703Z,101272.69
2019-02-06T11:49:33.153Z,101264.44
2019-02-06T11:54:35.261Z,101263.38
2019-02-06T11:59:37.161Z,101255.34
2019-02-06T12:04:39.185Z,101245.12
2019-02-06T12:09:41.271Z,101237.77
2019-02-06T12:14:43.193Z,101228.06
2019-02-06T12:19:45.075Z,101219.55
2019-02-06T12:24:47.292Z,101215.72
2019-02-06T12:29:49.312Z,101203.75
2019-02-06T12:34:51.535Z,101195.45
2019-02-06T12:39:54.136Z,101180.04
2019-02-06T12:44:58.956Z,101175.63
2019-02-06T12:50:00.025Z,101163.23
2019-02-06T12:55:05.551Z,101152.17
2019-02-06T13:00:12.627Z,101144.70
2019-02-06T13:05:14.853Z,101135.08
2019-02-06T13:10:17.233Z,101139.70
2019-02-06T13:15:19.804Z,101140.19
2019-02-06T13:20:23.679Z,101127.61
2019-02-06T13:25:25.676Z,101117.71
2019-02-06T13:30:29.597Z,101111.19
2019-02-06T13:35:31.608Z,101109.31
2019-02-06T13:40:44.735Z,101094.06
2019-02-06T13:45:40.243Z,101088.88
2019-02-06T13:50:42.433Z,101092.41
2019-02-06T13:55:44.360Z,101091.88
2019-02-06T14:00:46.597Z,101082.82
2019-02-06T14:05:49.099Z,101085.31
2019-02-06T14:11:00.126Z,101079.45
2019-02-06T14:15:55.735Z,101071.14
2019-02-06T14:20:57.883Z,101071.48
2019-02-06T14:26:23.131Z,101056.80
2019-02-06T14:31:45.268Z,101056.56
2019-02-06T14:37:09.318Z,101057.27
2019-02-06T14:42:36.931Z,101056.05
2019-02-06T14:48:10.907Z,101048.53
2019-02-06T14:53:29.310Z,101045.23
2019-02-06T14:58:49.702Z,101044.66
2019-02-06T15:04:29.396Z,101037.08
2019-02-06T15:10:00.338Z,101033.49
2019-02-06T15:15:33.856Z,101028.69
2019-02-06T15:21:19.630Z,101019.85
2019-02-06T15:26:57.061Z,101022.00
2019-02-06T15:32:37.540Z,101022.23
2019-02-06T15:38:21.386Z,101018.09
2019-02-06T15:43:59.824Z,101013.36
2019-02-06T15:49:23.895Z,101000.73
2019-02-06T15:54:44.171Z,100996.66
2019-02-06T16:00:28.559Z,100987.88
2019-02-06T16:05:55.937Z,100985.09
2019-02-06T16:11:42.343Z,100981.83
2019-02-06T16:17:11.715Z,100988.19
2019-02-06T16:22:39.585Z,100982.83
2019-02-06T16:28:05.192Z,100989.27
2019-02-06T16:33:35.903Z,100989.34
2019-02-06T16:38:52.612Z,100982.30
2019-02-06T16:44:34.864Z,100980.86
2019-02-06T16:50:17.139Z,100981.09
2019-02-06T16:55:48.726Z,100983.79
2019-02-06T17:01:11.919Z,100991.07
2019-02-06T17:06:53.733Z,100985.39
2019-02-06T17:12:46.395Z,100978.95
2019-02-06T17:18:23.992Z,100979.63
2019-02-06T17:24:13.956Z,100979.00
2019-02-06T17:29:55.229Z,100982.84
2019-02-06T17:35:19.597Z,100982.26
2019-02-06T17:40:35.597Z,100980.66
2019-02-06T17:46:00.613Z,100970.92
2019-02-06T17:51:41.760Z,100973.73
2019-02-06T17:56:43.776Z,100970.98
2019-02-06T18:01:50.120Z,100975.69
2019-02-06T18:06:52.322Z,100966.12
2019-02-06T18:11:54.235Z,100963.67
2019-02-06T18:16:56.587Z,100954.02
2019-02-06T18:21:58.460Z,100949.66
2019-02-06T18:27:00.513Z,100947.69
2019-02-06T18:32:03.362Z,100946.06
2019-02-06T18:37:05.545Z,100943.34
2019-02-06T18:42:07.541Z,100957.50
2019-02-06T18:47:09.555Z,100945.16
2019-02-06T18:52:20.260Z,100947.45
2019-02-06T18:57:16.121Z,100948.73
2019-02-06T19:02:18.209Z,100944.14
2019-02-06T19:07:20.287Z,100931.59
2019-02-06T19:12:22.503Z,100936.88
2019-02-06T19:17:24.533Z,100936.88
2019-02-06T19:22:26.425Z,100922.15
2019-02-06T19:27:28.331Z,100914.39
2019-02-06T19:32:30.268Z,100906.86
2019-02-06T19:37:32.176Z,100916.91
2019-02-06T19:42:34.087Z,100909.10
2019-02-06T19:47:36.218Z,100913.06
2019-02-06T19:52:38.112Z,100913.06
2019-02-06T19:57:40.318Z,100907.28
2019-02-06T20:02:43.627Z,100904.63
2019-02-06T20:07:45.545Z,100896.56
2019-02-06T20:12:47.849Z,100883.70
2019-02-06T20:17:51.148Z,100884.76
2019-02-06T20:22:53.359Z,100887.20
2019-02-06T20:27:55.490Z,100877.56
2019-02-06T20:32:57.427Z,100869.35
2019-02-06T20:37:59.432Z,100872.18
2019-02-06T20:43:01.532Z,100866.06
2019-02-06T20:48:03.895Z,100860.11
2019-02-06T20:53:05.991Z,100854.33
2019-02-06T20:58:07.988Z,100855.00
2019-02-06T21:03:10.016Z,100866.62
2019-02-06T21:08:12.037Z,100853.30
2019-02-06T21:13:13.984Z,100846.30
2019-02-06T21:18:16.019Z,100845.03
2019-02-06T21:23:18.885Z,100845.33
2019-02-06T21:28:20.992Z,100839.01
2019-02-06T21:33:22.907Z,100837.51
2019-02-06T21:38:24.796Z,100829.18
2019-02-06T21:43:26.882Z,100828.88
2019-02-06T21:48:28.791Z,100821.80
2019-02-06T21:53:30.683Z,100812.35
2019-02-06T21:58:32.631Z,100796.11
2019-02-06T22:03:34.819Z,100787.98
2019-02-06T22:08:36.811Z,100792.70
2019-02-06T22:13:40.764Z,100793.09
2019-02-06T22:18:42.664Z,100780.14
2019-02-06T22:23:44.649Z,100774.95
2019-02-06T22:28:46.886Z,100765.78
2019-02-06T22:33:49.329Z,100748.80
2019-02-06T22:38:51.763Z,100756.73
2019-02-06T22:43:53.725Z,100752.48
2019-02-06T22:48:55.740Z,100773.35
2019-02-06T22:53:57.649Z,100771.19
2019-02-06T22:58:59.653Z,100760.03
2019-02-06T23:04:01.960Z,100757.21
2019-02-06T23:09:06.603Z,100755.69
2019-02-06T23:14:17.127Z,100751.16
2019-02-06T23:19:12.875Z,100744.45
2019-02-06T23:24:15.015Z,100734.91
2019-02-06T23:29:17.309Z,100730.66
2019-02-06T23:34:19.218Z,100728.01
2019-02-06T23:39:21.316Z,100724.34
2019-02-06T23:44:28.937Z,100715.05
2019-02-06T23:49:28.130Z,100714.38
2019-02-06T23:54:30.147Z,100709.51
2019-02-06T23:59:32.170Z,100712.27
